createdAt,value
2019-05-12T00:01:28.501Z,80.21
2019-05-12T00:03:58.033Z,80.24
2019-05-12T00:06:28.383Z,80.06
2019-05-12T00:08:57.962Z,80.61
2019-05-12T00:11:28.530Z,80.39
2019-05-12T00:13:58.613Z,80.17
2019-05-12T00:16:28.318Z,80.63
2019-05-12T00:18:58.538Z,80.71
2019-05-12T00:21:28.323Z,80.36
2019-05-12T00:24:11.551Z,80.19
2019-05-12T00:26:41.959Z,80.33
2019-05-12T00:29:10.419Z,80.46
2019-05-12T00:31:38.828Z,79.90
2019-05-12T00:34:07.795Z,79.75
2019-05-12T00:36:37.924Z,79.87
2019-05-12T00:39:08.684Z,79.09
2019-05-12T00:41:38.907Z,78.40
2019-05-12T00:44:08.840Z,78.23
2019-05-12T00:46:38.563Z,78.07
2019-05-12T00:49:07.996Z,77.87
2019-05-12T00:51:38.425Z,77.95
2019-05-12T00:54:09.175Z,77.83
2019-05-12T00:56:39.254Z,77.25
2019-05-12T00:59:08.354Z,77.08
2019-05-12T01:01:38.050Z,76.32
2019-05-12T01:04:08.718Z,75.97
2019-05-12T01:06:38.649Z,75.70
2019-05-12T01:09:08.841Z,75.99
2019-05-12T01:11:37.986Z,76.06
2019-05-12T01:14:08.605Z,76.23
2019-05-12T01:16:38.560Z,76.30
2019-05-12T01:19:08.010Z,76.08
2019-05-12T01:21:37.734Z,76.84
2019-05-12T01:24:08.868Z,77.45
2019-05-12T01:26:38.564Z,77.51
2019-05-12T01:29:08.436Z,77.56
2019-05-12T01:31:38.374Z,77.94
2019-05-12T01:34:08.072Z,78.68
2019-05-12T01:36:38.127Z,78.45
2019-05-12T01:39:08.418Z,78.88
2019-05-12T01:41:38.995Z,78.46
2019-05-12T01:44:08.877Z,78.58
2019-05-12T01:46:38.323Z,78.18
2019-05-12T01:49:08.229Z,78.39
2019-05-12T01:51:38.467Z,79.45
2019-05-12T01:54:14.320Z,79.37
2019-05-12T01:56:38.295Z,78.97
2019-05-12T01:59:08.095Z,78.58
2019-05-12T02:01:38.941Z,79.16
2019-05-12T02:04:07.755Z,80.24
2019-05-12T02:06:38.367Z,79.93
2019-05-12T02:09:08.301Z,79.24
2019-05-12T02:11:38.023Z,79.82
2019-05-12T02:14:09.038Z,79.22
2019-05-12T02:16:38.667Z,79.37
2019-05-12T02:19:08.971Z,79.64
2019-05-12T02:21:38.173Z,79.43
2019-05-12T02:24:07.804Z,80.47
2019-05-12T02:26:38.316Z,80.88
2019-05-12T02:29:07.913Z,80.87
2019-05-12T02:31:39.367Z,81.90
2019-05-12T02:34:06.566Z,81.35
2019-05-12T02:36:34.978Z,81.46
2019-05-12T02:39:06.008Z,81.99
2019-05-12T02:41:34.700Z,81.90
2019-05-12T02:44:05.341Z,81.64
2019-05-12T02:46:34.853Z,81.65
2019-05-12T02:49:04.929Z,81.37
2019-05-12T02:51:35.620Z,81.62
2019-05-12T02:54:05.521Z,81.62
2019-05-12T02:56:35.749Z,82.03
2019-05-12T02:59:05.376Z,80.99
2019-05-12T03:01:35.580Z,81.03
2019-05-12T03:04:05.858Z,80.97
2019-05-12T03:06:36.383Z,81.44
2019-05-12T03:09:07.312Z,80.94
2019-05-12T03:11:37.278Z,81.00
2019-05-12T03:14:05.681Z,81.61
2019-05-12T03:16:34.951Z,81.67
2019-05-12T03:19:04.893Z,81.65
2019-05-12T03:21:35.672Z,82.97
2019-05-12T03:24:06.328Z,83.42
2019-05-12T03:26:35.143Z,83.78
2019-05-12T03:29:05.668Z,83.90
2019-05-12T03:31:38.742Z,83.46
2019-05-12T03:34:09.311Z,83.74
2019-05-12T03:36:41.173Z,85.03
2019-05-12T03:39:06.468Z,84.18
2019-05-12T03:41:34.991Z,84.73
2019-05-12T03:44:05.161Z,84.05
2019-05-12T03:46:35.273Z,83.61
2019-05-12T03:49:05.268Z,83.26
2019-05-12T03:51:35.003Z,82.67
2019-05-12T03:54:04.753Z,81.88
2019-05-12T03:56:34.608Z,81.71
2019-05-12T03:59:04.771Z,80.74
2019-05-12T04:01:36.406Z,80.29
2019-05-12T04:04:05.123Z,80.42
2019-05-12T04:06:34.643Z,79.92
2019-05-12T04:09:05.674Z,79.37
2019-05-12T04:11:35.608Z,79.43
2019-05-12T04:14:05.764Z,79.73
2019-05-12T04:16:36.244Z,79.24
2019-05-12T04:19:05.545Z,80.12
2019-05-12T04:21:35.045Z,80.10
2019-05-12T04:24:05.383Z,80.02
2019-05-12T04:26:36.447Z,80.14
2019-05-12T04:29:05.101Z,80.02
2019-05-12T04:31:35.023Z,80.23
2019-05-12T04:34:05.178Z,80.54
2019-05-12T04:36:35.508Z,80.68
2019-05-12T04:39:05.509Z,80.32
2019-05-12T04:41:35.382Z,80.48
2019-05-12T04:44:05.889Z,80.15
2019-05-12T04:46:34.724Z,79.84
2019-05-12T04:49:05.269Z,79.83
2019-05-12T04:51:34.939Z,79.33
2019-05-12T04:54:05.746Z,78.88
2019-05-12T04:56:35.848Z,79.51
2019-05-12T04:59:04.979Z,79.05
2019-05-12T05:01:34.853Z,78.55
2019-05-12T05:04:05.346Z,78.61
2019-05-12T05:06:34.323Z,78.61
2019-05-12T05:09:05.140Z,78.59
2019-05-12T05:11:34.588Z,78.43
2019-05-12T05:14:04.265Z,77.55
2019-05-12T05:16:34.571Z,77.00
2019-05-12T05:19:03.833Z,76.12
2019-05-12T05:21:34.243Z,69.85
2019-05-12T05:24:03.806Z,63.10
2019-05-12T05:26:36.721Z,53.38
2019-05-12T05:29:04.303Z,48.26
2019-05-12T05:31:33.699Z,45.30
2019-05-12T05:34:04.691Z,41.29
2019-05-12T05:36:34.512Z,37.92
2019-05-12T05:39:04.447Z,36.05
2019-05-12T05:41:34.501Z,33.37
2019-05-12T05:44:03.222Z,31.84
2019-05-12T05:46:33.702Z,31.64
2019-05-12T05:49:04.079Z,29.42
2019-05-12T05:51:33.485Z,30.64
2019-05-12T05:54:04.024Z,29.78
2019-05-12T05:56:42.187Z,28.44
2019-05-12T05:59:04.511Z,27.56
2019-05-12T06:01:34.648Z,26.95
2019-05-12T06:04:04.315Z,25.74
2019-05-12T06:06:34.208Z,25.41
2019-05-12T06:09:04.373Z,24.84
2019-05-12T06:11:34.496Z,24.78
2019-05-12T06:14:11.092Z,24.93
2019-05-12T06:16:34.057Z,24.12
2019-05-12T06:19:03.463Z,24.65
2019-05-12T06:21:36.803Z,23.71
2019-05-12T06:24:03.485Z,23.75
2019-05-12T06:26:35.381Z,23.10
2019-05-12T06:29:04.433Z,22.78
2019-05-12T06:31:33.574Z,22.96
2019-05-12T06:34:06.163Z,22.83
2019-05-12T06:36:33.976Z,22.03
2019-05-12T06:39:04.366Z,22.70
2019-05-12T06:41:33.647Z,21.50
2019-05-12T06:44:03.682Z,21.91
2019-05-12T06:46:34.242Z,22.30
2019-05-12T06:49:10.142Z,22.10
2019-05-12T06:51:33.821Z,22.68
2019-05-12T06:54:07.425Z,25.27
2019-05-12T06:56:34.161Z,25.72
2019-05-12T06:59:09.744Z,26.28
2019-05-12T07:01:33.524Z,26.35
2019-05-12T07:04:08.274Z,28.31
2019-05-12T07:06:33.868Z,30.69
2019-05-12T07:09:09.160Z,33.18
2019-05-12T07:11:44.542Z,32.08
2019-05-12T07:14:07.989Z,32.16
2019-05-12T07:16:34.123Z,35.42
2019-05-12T07:19:07.801Z,36.15
2019-05-12T07:21:33.578Z,36.67
2019-05-12T07:24:06.706Z,36.80
2019-05-12T07:26:33.912Z,37.82
2019-05-12T07:29:04.439Z,37.13
2019-05-12T07:31:33.687Z,36.62
2019-05-12T07:34:06.929Z,35.61
2019-05-12T07:36:33.991Z,39.34
2019-05-12T07:39:08.276Z,41.03
2019-05-12T07:41:42.314Z,43.66
2019-05-12T07:44:10.883Z,44.75
2019-05-12T07:46:44.483Z,45.65
2019-05-12T07:49:09.418Z,42.13
2019-05-12T07:51:40.433Z,41.01
2019-05-12T07:54:07.958Z,41.45
2019-05-12T07:56:36.377Z,41.68
2019-05-12T07:59:04.787Z,43.79
2019-05-12T08:01:35.917Z,44.39
2019-05-12T08:04:04.581Z,42.91
2019-05-12T08:06:41.440Z,41.71
2019-05-12T08:09:04.756Z,41.49
2019-05-12T08:11:34.674Z,39.91
2019-05-12T08:14:03.716Z,36.37
2019-05-12T08:16:36.233Z,38.09
2019-05-12T08:19:03.988Z,38.67
2019-05-12T08:21:34.841Z,38.30
2019-05-12T08:24:03.788Z,36.61
2019-05-12T08:26:33.505Z,38.02
2019-05-12T08:29:04.206Z,39.59
2019-05-12T08:31:37.238Z,39.03
2019-05-12T08:34:04.263Z,36.97
2019-05-12T08:36:33.429Z,39.33
2019-05-12T08:39:05.912Z,38.27
2019-05-12T08:41:34.083Z,38.80
2019-05-12T08:44:04.401Z,36.30
2019-05-12T08:46:34.379Z,37.46
2019-05-12T08:49:05.256Z,35.54
2019-05-12T08:51:33.902Z,36.76
2019-05-12T08:54:07.496Z,37.66
2019-05-12T08:56:33.272Z,39.68
2019-05-12T08:59:04.111Z,40.30
2019-05-12T09:01:34.155Z,39.15
2019-05-12T09:04:06.664Z,39.24
2019-05-12T09:06:34.303Z,37.25
2019-05-12T09:09:04.510Z,35.62
2019-05-12T09:11:33.557Z,36.45
2019-05-12T09:14:03.540Z,35.68
2019-05-12T09:16:33.516Z,37.39
2019-05-12T09:19:04.688Z,38.91
2019-05-12T09:21:34.857Z,36.17
2019-05-12T09:24:04.278Z,36.27
2019-05-12T09:26:34.450Z,36.62
2019-05-12T09:29:03.451Z,36.85
2019-05-12T09:31:33.577Z,37.87
2019-05-12T09:34:05.977Z,35.87
2019-05-12T09:36:33.799Z,35.83
2019-05-12T09:39:03.820Z,37.17
2019-05-12T09:41:35.956Z,37.24
2019-05-12T09:44:04.567Z,32.90
2019-05-12T09:46:37.315Z,37.38
2019-05-12T09:49:04.105Z,38.20
2019-05-12T09:51:41.044Z,35.98
2019-05-12T09:54:05.060Z,37.07
2019-05-12T09:56:34.181Z,34.87
2019-05-12T09:59:17.097Z,35.38
2019-05-12T10:01:35.225Z,34.27
2019-05-12T10:04:03.490Z,34.16
2019-05-12T10:06:33.947Z,34.36
2019-05-12T10:09:03.477Z,36.29
2019-05-12T10:11:31.930Z,34.39
2019-05-12T10:14:05.671Z,37.32
2019-05-12T10:16:30.460Z,33.86
2019-05-12T10:18:58.856Z,33.00
2019-05-12T10:21:27.263Z,33.47
2019-05-12T10:24:00.273Z,33.46
2019-05-12T10:26:25.783Z,33.69
2019-05-12T10:28:58.346Z,33.27
2019-05-12T10:31:24.413Z,34.25
2019-05-12T10:33:58.213Z,34.34
2019-05-12T10:36:26.184Z,34.79
2019-05-12T10:38:54.600Z,35.28
2019-05-12T10:41:23.666Z,33.05
2019-05-12T10:43:54.288Z,32.29
2019-05-12T10:46:26.914Z,30.96
2019-05-12T10:48:53.897Z,33.58
2019-05-12T10:51:23.923Z,35.76
2019-05-12T10:53:58.329Z,35.97
2019-05-12T10:56:24.036Z,38.49
2019-05-12T10:58:53.475Z,39.17
2019-05-12T11:01:24.295Z,37.77
2019-05-12T11:03:52.260Z,35.91
2019-05-12T11:06:20.819Z,35.49
2019-05-12T11:08:51.224Z,35.90
2019-05-12T11:11:19.641Z,35.32
2019-05-12T11:13:49.856Z,36.34
2019-05-12T11:16:22.769Z,34.96
2019-05-12T11:18:48.305Z,34.57
2019-05-12T11:21:16.976Z,36.51
2019-05-12T11:23:45.372Z,38.81
2019-05-12T11:26:14.232Z,36.45
2019-05-12T11:28:42.687Z,36.49
2019-05-12T11:31:11.099Z,36.07
2019-05-12T11:33:39.497Z,36.21
2019-05-12T11:36:07.910Z,37.09
2019-05-12T11:38:36.300Z,34.66
2019-05-12T11:41:04.708Z,34.35
2019-05-12T11:43:33.730Z,34.69
2019-05-12T11:46:02.310Z,33.55
2019-05-12T11:48:30.684Z,33.59
2019-05-12T11:50:59.092Z,34.44
2019-05-12T11:53:30.641Z,34.42
2019-05-12T11:56:02.249Z,32.51
2019-05-12T11:58:27.727Z,34.85
2019-05-12T12:00:58.662Z,31.92
2019-05-12T12:03:27.890Z,31.40
2019-05-12T12:05:56.304Z,34.18
2019-05-12T12:08:26.225Z,33.76
2019-05-12T12:10:54.876Z,32.20
2019-05-12T12:13:27.099Z,32.57
2019-05-12T12:15:53.649Z,32.89
2019-05-12T12:18:23.523Z,32.28
2019-05-12T12:20:55.126Z,33.50
2019-05-12T12:23:22.286Z,33.05
2019-05-12T12:25:50.690Z,33.19
2019-05-12T12:28:19.087Z,33.13
2019-05-12T12:30:52.485Z,31.07
2019-05-12T12:33:17.655Z,29.91
2019-05-12T12:35:50.606Z,30.26
2019-05-12T12:38:16.248Z,31.80
2019-05-12T12:40:44.658Z,31.60
2019-05-12T12:43:13.790Z,32.28
2019-05-12T12:45:55.764Z,32.83
2019-05-12T12:48:25.466Z,33.13
2019-05-12T12:50:54.286Z,35.26
2019-05-12T12:53:23.825Z,35.09
2019-05-12T12:55:53.807Z,38.36
2019-05-12T12:58:26.978Z,36.78
2019-05-12T13:00:56.663Z,34.27
2019-05-12T13:03:25.785Z,36.42
2019-05-12T13:05:54.274Z,34.98
2019-05-12T13:08:24.676Z,34.72
2019-05-12T13:10:54.166Z,34.33
2019-05-12T13:13:24.528Z,32.89
2019-05-12T13:15:53.471Z,32.41
2019-05-12T13:18:25.686Z,33.77
2019-05-12T13:20:53.989Z,34.17
2019-05-12T13:23:34.732Z,34.17
2019-05-12T13:25:54.652Z,31.23
2019-05-12T13:28:25.599Z,33.28
2019-05-12T13:30:55.907Z,31.16
2019-05-12T13:33:23.399Z,32.01
2019-05-12T13:35:55.714Z,31.01
2019-05-12T13:38:23.786Z,31.18
2019-05-12T13:40:54.018Z,29.78
2019-05-12T13:43:23.835Z,29.18
2019-05-12T13:45:53.445Z,30.28
2019-05-12T13:48:24.011Z,31.70
2019-05-12T13:50:54.375Z,32.85
2019-05-12T13:53:24.343Z,31.66
2019-05-12T13:55:54.397Z,32.44
2019-05-12T13:58:22.698Z,32.45
2019-05-12T14:01:10.524Z,31.73
2019-05-12T14:03:21.247Z,32.83
2019-05-12T14:05:50.777Z,32.34
2019-05-12T14:08:19.796Z,30.44
2019-05-12T14:10:53.621Z,30.31
2019-05-12T14:13:18.336Z,32.67
2019-05-12T14:15:46.903Z,35.51
2019-05-12T14:18:18.941Z,35.94
2019-05-12T14:20:45.436Z,34.55
2019-05-12T14:23:14.553Z,34.60
2019-05-12T14:25:43.865Z,33.58
2019-05-12T14:28:16.247Z,31.97
2019-05-12T14:30:49.704Z,32.44
2019-05-12T14:33:12.675Z,34.13
2019-05-12T14:35:45.439Z,34.84
2019-05-12T14:38:11.227Z,34.73
2019-05-12T14:40:39.637Z,36.50
2019-05-12T14:43:10.400Z,33.74
2019-05-12T14:45:38.180Z,32.08
2019-05-12T14:48:09.200Z,32.32
2019-05-12T14:50:36.696Z,33.50
2019-05-12T14:53:05.335Z,35.12
2019-05-12T14:55:33.839Z,34.21
2019-05-12T14:58:03.563Z,33.51
2019-05-12T15:00:34.214Z,33.45
2019-05-12T15:03:07.089Z,33.26
2019-05-12T15:05:32.463Z,33.20
2019-05-12T15:08:00.862Z,34.17
2019-05-12T15:10:29.613Z,33.50
2019-05-12T15:12:58.023Z,35.10
2019-05-12T15:15:26.486Z,34.07
2019-05-12T15:18:02.911Z,34.55
2019-05-12T15:20:25.022Z,33.29
2019-05-12T15:22:55.329Z,31.99
2019-05-12T15:25:23.569Z,32.94
2019-05-12T15:27:54.224Z,33.72
2019-05-12T15:30:24.420Z,32.62
2019-05-12T15:32:53.623Z,33.63
2019-05-12T15:35:24.064Z,33.58
2019-05-12T15:37:55.042Z,34.49
2019-05-12T15:40:23.622Z,35.62
2019-05-12T15:42:54.936Z,34.16
2019-05-12T15:45:23.799Z,34.15
2019-05-12T15:47:53.527Z,35.35
2019-05-12T15:50:23.546Z,34.94
2019-05-12T15:52:54.499Z,33.94
2019-05-12T15:55:25.433Z,35.52
2019-05-12T15:57:52.335Z,35.23
2019-05-12T16:00:20.750Z,36.07
2019-05-12T16:02:49.178Z,35.25
2019-05-12T16:05:20.128Z,35.01
2019-05-12T16:07:47.861Z,33.89
2019-05-12T16:10:16.385Z,33.85
2019-05-12T16:12:44.792Z,34.47
2019-05-12T16:15:17.095Z,35.59
2019-05-12T16:17:44.330Z,35.23
2019-05-12T16:20:14.227Z,35.97
2019-05-12T16:22:45.232Z,36.46
2019-05-12T16:25:15.345Z,35.45
2019-05-12T16:27:44.394Z,35.58
2019-05-12T16:30:13.960Z,35.43
2019-05-12T16:32:47.267Z,37.10
2019-05-12T16:35:14.592Z,37.34
2019-05-12T16:37:44.313Z,36.94
2019-05-12T16:40:13.813Z,35.59
2019-05-12T16:42:48.039Z,36.68
2019-05-12T16:45:14.582Z,36.18
2019-05-12T16:47:44.729Z,37.03
2019-05-12T16:50:15.977Z,37.51
2019-05-12T16:52:45.359Z,36.74
2019-05-12T16:55:13.719Z,36.92
2019-05-12T16:57:47.531Z,36.52
2019-05-12T17:00:13.884Z,36.07
2019-05-12T17:02:52.123Z,37.32
2019-05-12T17:05:20.200Z,35.66
2019-05-12T17:07:44.183Z,36.45
2019-05-12T17:10:16.527Z,35.20
2019-05-12T17:12:43.659Z,35.83
2019-05-12T17:15:14.612Z,35.97
2019-05-12T17:17:44.812Z,35.38
2019-05-12T17:20:13.786Z,35.08
2019-05-12T17:22:45.505Z,35.41
2019-05-12T17:25:15.274Z,36.17
2019-05-12T17:27:44.875Z,35.75
2019-05-12T17:30:13.683Z,35.03
2019-05-12T17:32:56.555Z,35.37
2019-05-12T17:35:14.744Z,36.03
2019-05-12T17:37:42.756Z,35.13
2019-05-12T17:40:15.475Z,35.00
2019-05-12T17:42:44.267Z,35.72
2019-05-12T17:45:18.030Z,35.92
2019-05-12T17:47:44.484Z,32.83
2019-05-12T17:50:13.660Z,34.65
2019-05-12T17:52:44.135Z,35.62
2019-05-12T17:55:14.498Z,35.68
2019-05-12T17:57:43.845Z,35.89
2019-05-12T18:00:13.916Z,36.54
2019-05-12T18:02:43.938Z,37.03
2019-05-12T18:05:15.557Z,36.42
2019-05-12T18:07:44.660Z,37.12
2019-05-12T18:10:13.837Z,37.63
2019-05-12T18:12:45.099Z,37.21
2019-05-12T18:15:15.099Z,38.12
2019-05-12T18:17:47.367Z,39.61
2019-05-12T18:20:14.596Z,39.82
2019-05-12T18:22:45.076Z,40.48
2019-05-12T18:25:14.643Z,40.47
2019-05-12T18:27:50.241Z,40.65
2019-05-12T18:30:15.579Z,40.65
2019-05-12T18:32:43.879Z,41.48
2019-05-12T18:35:13.606Z,41.33
2019-05-12T18:37:42.230Z,41.57
2019-05-12T18:40:10.876Z,41.51
2019-05-12T18:42:39.282Z,42.39
2019-05-12T18:45:12.200Z,42.47
2019-05-12T18:47:38.411Z,42.54
2019-05-12T18:50:10.237Z,43.40
2019-05-12T18:52:42.925Z,44.08
2019-05-12T18:55:08.928Z,44.53
2019-05-12T18:57:39.226Z,44.81
2019-05-12T19:00:10.498Z,45.03
2019-05-12T19:02:38.898Z,45.56
2019-05-12T19:05:12.992Z,46.27
2019-05-12T19:07:40.046Z,46.81
2019-05-12T19:10:08.042Z,47.79
2019-05-12T19:12:36.502Z,48.62
2019-05-12T19:15:10.367Z,48.64
2019-05-12T19:17:36.762Z,49.38
2019-05-12T19:20:09.614Z,49.28
2019-05-12T19:22:39.293Z,49.61
2019-05-12T19:25:08.318Z,50.49
2019-05-12T19:27:36.712Z,51.32
2019-05-12T19:30:06.185Z,51.78
2019-05-12T19:32:36.676Z,52.21
2019-05-12T19:35:09.514Z,52.35
2019-05-12T19:37:37.063Z,52.65
2019-05-12T19:40:12.203Z,52.81
2019-05-12T19:42:38.596Z,53.03
2019-05-12T19:45:16.131Z,52.93
2019-05-12T19:47:38.915Z,53.31
2019-05-12T19:50:11.169Z,53.68
2019-05-12T19:52:38.076Z,53.61
2019-05-12T19:55:07.018Z,54.07
2019-05-12T19:57:35.405Z,54.74
2019-05-12T20:00:05.725Z,54.56
2019-05-12T20:02:34.351Z,54.59
2019-05-12T20:05:04.585Z,55.27
2019-05-12T20:07:33.850Z,55.21
2019-05-12T20:10:04.492Z,56.14
2019-05-12T20:12:34.281Z,56.27
2019-05-12T20:15:04.061Z,57.13
2019-05-12T20:17:33.899Z,57.21
2019-05-12T20:20:04.699Z,57.80
2019-05-12T20:22:33.433Z,58.05
2019-05-12T20:25:04.075Z,58.20
2019-05-12T20:27:34.294Z,58.12
2019-05-12T20:30:07.179Z,58.85
2019-05-12T20:32:34.263Z,58.93
2019-05-12T20:35:04.218Z,58.71
2019-05-12T20:37:33.694Z,59.40
2019-05-12T20:40:05.239Z,59.42
2019-05-12T20:42:41.893Z,59.64
2019-05-12T20:45:05.756Z,59.57
2019-05-12T20:47:39.219Z,60.12
2019-05-12T20:50:06.225Z,60.26
2019-05-12T20:52:39.522Z,60.52
2019-05-12T20:55:05.477Z,60.87
2019-05-12T20:57:34.523Z,61.68
2019-05-12T21:00:08.208Z,62.21
2019-05-12T21:02:34.536Z,61.98
2019-05-12T21:05:09.512Z,61.71
2019-05-12T21:07:34.033Z,62.18
2019-05-12T21:10:04.041Z,61.56
2019-05-12T21:12:33.436Z,61.56
2019-05-12T21:15:13.805Z,61.79
2019-05-12T21:17:42.311Z,62.78
2019-05-12T21:20:04.456Z,62.54
2019-05-12T21:22:34.231Z,62.17
2019-05-12T21:25:04.137Z,62.75
2019-05-12T21:27:33.444Z,63.89
2019-05-12T21:30:09.903Z,64.18
2019-05-12T21:32:33.902Z,64.81
2019-05-12T21:35:15.788Z,65.20
2019-05-12T21:37:37.096Z,65.64
2019-05-12T21:40:03.631Z,65.89
2019-05-12T21:42:33.851Z,66.37
2019-05-12T21:45:04.627Z,66.51
2019-05-12T21:47:34.000Z,66.61
2019-05-12T21:50:03.631Z,67.14
2019-05-12T21:52:37.262Z,67.04
2019-05-12T21:55:05.941Z,67.79
2019-05-12T21:57:34.544Z,67.97
2019-05-12T22:00:04.791Z,68.24
2019-05-12T22:02:34.131Z,69.04
2019-05-12T22:05:04.184Z,69.55
2019-05-12T22:07:38.092Z,70.30
2019-05-12T22:10:04.807Z,70.76
2019-05-12T22:12:33.406Z,70.83
2019-05-12T22:15:03.805Z,71.21
2019-05-12T22:17:33.530Z,71.93
2019-05-12T22:20:08.929Z,72.06
2019-05-12T22:22:33.182Z,72.43
2019-05-12T22:25:01.727Z,72.96
2019-05-12T22:27:30.994Z,73.77
2019-05-12T22:29:59.405Z,74.00
2019-05-12T22:32:29.683Z,74.47
2019-05-12T22:34:58.163Z,74.43
2019-05-12T22:37:29.468Z,74.91
2019-05-12T22:39:56.701Z,74.90
2019-05-12T22:42:25.131Z,74.26
2019-05-12T22:45:01.629Z,74.21
2019-05-12T22:47:24.150Z,74.56
2019-05-12T22:49:57.034Z,74.71
2019-05-12T22:52:23.858Z,74.39
2019-05-12T22:54:53.742Z,74.76
2019-05-12T22:57:24.179Z,74.77
2019-05-12T22:59:53.164Z,74.96
2019-05-12T23:02:25.448Z,75.12
2019-05-12T23:04:51.767Z,75.12
2019-05-12T23:07:27.755Z,74.74
2019-05-12T23:09:50.329Z,75.32
2019-05-12T23:12:20.238Z,75.21
2019-05-12T23:14:56.465Z,75.77
2019-05-12T23:17:18.841Z,76.10
2019-05-12T23:19:51.513Z,76.11
2019-05-12T23:22:17.964Z,76.56
2019-05-12T23:24:46.389Z,76.08
2019-05-12T23:27:18.751Z,75.88
2019-05-12T23:29:44.949Z,76.45
2019-05-12T23:32:15.029Z,76.85
2019-05-12T23:34:44.908Z,76.87
2019-05-12T23:37:14.177Z,77.19
2019-05-12T23:39:44.225Z,77.19
2019-05-12T23:42:13.609Z,77.22
2019-05-12T23:44:44.154Z,77.10
2019-05-12T23:47:12.449Z,77.03
2019-05-12T23:49:40.908Z,76.76
2019-05-12T23:52:09.355Z,76.82
2019-05-12T23:54:37.771Z,76.70
2019-05-12T23:57:06.183Z,76.37
2019-05-12T23:59:34.626Z,76.49
